Time;durP1;ratioP1;P1;durP2;ratioP2;P2;SDS_P1;SDS_P2;PMS_P1;PMS_P2;Temp;Humidity;BMP_temperature;BMP_pressure;BME280_temperature;BME280_humidity;BME280_pressure;Samples;Min_cycle;Max_cycle;Signal;HPM_P1;HPM_P2
2021/12/27 00:02:21;;;;;;;62.17;33.28;;;;;;;3.46;61.44;100293.13;5155773;28;20416;-41
2021/12/27 00:04:53;;;;;;;71.20;34.87;;;;;;;3.46;61.43;100294.91;5164331;28;21015;-41
2021/12/27 00:07:25;;;;;;;61.65;32.30;;;;;;;3.43;61.41;100293.34;5161773;28;20423;-42
2021/12/27 00:10:01;;;;;;;69.53;35.45;;;;;;;3.36;61.56;100275.69;5159798;28;20409;-43
2021/12/27 00:12:33;;;;;;;67.78;33.13;;;;;;;3.41;61.56;100278.78;5166122;28;20434;-45
2021/12/27 00:15:09;;;;;;;71.10;35.50;;;;;;;3.49;61.58;100279.00;5166680;28;20424;-43
2021/12/27 00:17:41;;;;;;;60.88;34.63;;;;;;;3.50;61.47;100278.09;5156200;28;20415;-43
2021/12/27 00:20:17;;;;;;;76.90;36.45;;;;;;;3.50;61.58;100278.09;5162475;28;20419;-42
2021/12/27 00:22:51;;;;;;;66.73;34.20;;;;;;;3.50;61.57;100270.25;5154707;28;20876;-45
2021/12/27 00:25:24;;;;;;;70.60;35.17;;;;;;;3.50;61.85;100278.09;5154827;28;20428;-42
2021/12/27 00:27:57;;;;;;;75.80;35.72;;;;;;;3.55;61.53;100269.88;5187738;28;20426;-41
2021/12/27 00:30:31;;;;;;;82.03;36.58;;;;;;;3.60;61.66;100271.19;5196336;28;20421;-41
2021/12/27 00:33:03;;;;;;;71.72;32.58;;;;;;;3.64;61.79;100267.38;5201188;28;20774;-41
2021/12/27 00:35:36;;;;;;;74.25;37.95;;;;;;;3.62;61.83;100261.47;5207277;28;20428;-42
2021/12/27 00:38:09;;;;;;;89.50;39.83;;;;;;;3.64;62.08;100258.72;5195443;28;20441;-45
2021/12/27 00:40:42;;;;;;;81.10;37.58;;;;;;;3.64;61.67;100259.56;5189786;28;20418;-40
2021/12/27 00:43:16;;;;;;;79.78;39.25;;;;;;;3.65;61.79;100249.94;5201985;28;20481;-42
2021/12/27 00:45:49;;;;;;;88.70;40.60;;;;;;;3.68;62.07;100250.50;5196097;28;20934;-42
2021/12/27 00:48:22;;;;;;;87.80;36.78;;;;;;;3.74;61.99;100251.00;5196038;28;20415;-42
2021/12/27 00:50:55;;;;;;;89.80;41.30;;;;;;;3.65;61.78;100235.13;5195904;28;20425;-42
2021/12/27 00:53:27;;;;;;;83.40;40.70;;;;;;;3.76;62.29;100243.88;5197030;28;20406;-43
2021/12/27 00:55:59;;;;;;;87.53;39.33;;;;;;;3.77;62.00;100235.91;5198054;28;20716;-42
2021/12/27 00:58:32;;;;;;;77.95;39.33;;;;;;;3.81;62.07;100237.34;5195443;28;20720;-43
2021/12/27 01:01:06;;;;;;;89.10;43.67;;;;;;;3.82;62.14;100235.56;5194574;28;20429;-43
2021/12/27 01:03:38;;;;;;;91.32;41.38;;;;;;;3.77;62.23;100228.06;5189878;28;20425;-43
2021/12/27 01:06:10;;;;;;;86.10;43.55;;;;;;;3.82;62.36;100238.19;5207880;28;20765;-41
2021/12/27 01:08:43;;;;;;;85.10;41.20;;;;;;;3.72;62.47;100214.56;5192170;28;20413;-40
2021/12/27 01:11:26;;;;;;;87.60;41.25;;;;;;;3.83;62.15;100232.00;5193888;28;20427;-42
2021/12/27 01:14:11;;;;;;;89.25;42.40;;;;;;;3.84;62.36;100228.41;5183408;28;20433;-41
2021/12/27 01:16:46;;;;;;;85.97;41.30;;;;;;;3.75;62.50;100218.69;5187962;28;20467;-43
2021/12/27 01:19:18;;;;;;;85.95;44.67;;;;;;;3.83;62.55;100216.31;5188570;28;20413;-46
2021/12/27 01:21:50;;;;;;;91.70;42.42;;;;;;;3.82;62.84;100220.72;5200693;28;20396;-43
2021/12/27 01:24:23;;;;;;;87.93;42.47;;;;;;;3.83;62.86;100211.09;5178173;28;20842;-44
2021/12/27 01:26:55;;;;;;;89.77;44.73;;;;;;;3.84;63.00;100208.38;5185994;28;20417;-41
2021/12/27 01:29:27;;;;;;;107.75;45.50;;;;;;;3.88;63.11;100215.00;5194033;28;20755;-42
2021/12/27 01:32:12;;;;;;;98.60;44.60;;;;;;;3.79;62.98;100192.22;5197978;28;20712;-42
2021/12/27 01:34:44;;;;;;;97.40;45.08;;;;;;;3.88;62.89;100203.72;5197605;28;20501;-41
2021/12/27 01:37:18;;;;;;;93.88;45.38;;;;;;;3.79;62.93;100188.78;5193584;28;20422;-43
2021/12/27 01:39:50;;;;;;;91.43;44.53;;;;;;;3.89;63.16;100200.97;5194184;28;20875;-42
2021/12/27 01:42:23;;;;;;;93.05;42.40;;;;;;;3.96;63.00;100192.66;5199228;28;20429;-42
2021/12/27 01:44:55;;;;;;;94.07;42.45;;;;;;;3.99;63.24;100205.47;5198492;28;20887;-42
2021/12/27 01:47:31;;;;;;;95.13;44.75;;;;;;;3.74;63.28;100164.81;5185673;28;20501;-41
2021/12/27 01:50:04;;;;;;;89.20;44.10;;;;;;;3.98;63.06;100201.22;5187682;28;20488;-43
2021/12/27 01:52:36;;;;;;;99.85;45.20;;;;;;;4.00;63.34;100207.97;5199826;28;20491;-41
2021/12/27 01:55:09;;;;;;;96.78;43.80;;;;;;;4.01;63.13;100199.19;5189228;28;20440;-43
2021/12/27 01:57:41;;;;;;;85.80;43.72;;;;;;;4.02;63.44;100195.59;5201613;28;20498;-42
2021/12/27 02:00:15;;;;;;;91.65;45.40;;;;;;;3.75;63.41;100150.78;5196195;28;20406;-44
2021/12/27 02:02:49;;;;;;;102.18;44.30;;;;;;;4.03;63.51;100199.91;5198507;28;20409;-45
2021/12/27 02:05:22;;;;;;;110.72;47.03;;;;;;;4.04;63.62;100198.94;5186885;28;20426;-43
2021/12/27 02:07:54;;;;;;;99.57;45.83;;;;;;;4.06;63.42;100194.44;5199035;28;20460;-42
2021/12/27 02:10:26;;;;;;;89.53;45.65;;;;;;;4.12;63.35;100191.31;5200127;28;20422;-43
2021/12/27 02:12:59;;;;;;;105.25;47.47;;;;;;;4.11;63.49;100196.66;5199804;28;20411;-44
2021/12/27 02:15:31;;;;;;;102.22;45.28;;;;;;;4.09;63.60;100196.78;5205258;28;20494;-42
2021/12/27 02:18:08;;;;;;;101.63;47.35;;;;;;;4.09;63.74;100188.94;5195120;28;20415;-42
2021/12/27 02:20:44;;;;;;;97.32;46.50;;;;;;;4.15;63.54;100198.91;5198663;28;20419;-40
2021/12/27 02:23:18;;;;;;;99.63;45.42;;;;;;;4.15;63.71;100198.91;5216410;28;20512;-41
2021/12/27 02:25:52;;;;;;;95.40;46.30;;;;;;;4.18;63.78;100190.00;5202204;28;20390;-43
2021/12/27 02:28:24;;;;;;;105.28;48.38;;;;;;;4.19;63.82;100191.66;5192640;28;20466;-41
2021/12/27 02:31:19;;;;;;;105.63;47.53;;;;;;;4.22;63.90;100185.34;5199552;28;20439;-41
2021/12/27 02:33:52;;;;;;;100.68;46.83;;;;;;;4.22;63.78;100185.34;5172821;28;20970;-41
2021/12/27 02:36:26;;;;;;;97.72;44.90;;;;;;;4.22;64.05;100175.72;5191006;28;20571;-42
2021/12/27 02:39:25;;;;;;;106.85;47.38;;;;;;;4.24;63.94;100172.97;5193575;28;20432;-42
2021/12/27 02:41:58;;;;;;;106.38;48.85;;;;;;;4.25;63.87;100172.03;5199061;28;20417;-42
2021/12/27 02:44:30;;;;;;;119.82;49.40;;;;;;;4.21;64.11;100158.34;5200857;28;20961;-43
2021/12/27 02:47:03;;;;;;;102.90;47.92;;;;;;;4.28;63.98;100159.53;5194772;28;20457;-43
2021/12/27 02:49:35;;;;;;;97.90;45.83;;;;;;;4.26;64.01;100155.38;5198814;28;20888;-42
2021/12/27 02:52:10;;;;;;;102.70;46.15;;;;;;;4.25;64.15;100158.97;5195940;28;20422;-43
2021/12/27 02:54:43;;;;;;;105.53;48.37;;;;;;;4.24;64.16;100146.81;5198462;28;20413;-43
2021/12/27 02:57:15;;;;;;;104.88;49.10;;;;;;;4.27;64.38;100149.19;5201602;28;20412;-42
2021/12/27 02:59:47;;;;;;;103.07;47.30;;;;;;;4.31;64.18;100153.22;5194961;28;20424;-42
2021/12/27 03:02:20;;;;;;;103.22;46.75;;;;;;;4.35;64.42;100154.63;5194053;28;20505;-45
2021/12/27 03:04:52;;;;;;;114.45;47.45;;;;;;;4.35;64.19;100149.41;5198567;28;20405;-42
2021/12/27 03:07:26;;;;;;;103.78;47.25;;;;;;;4.43;64.18;100162.66;5194994;28;20405;-43
2021/12/27 03:09:59;;;;;;;101.15;45.47;;;;;;;4.46;64.49;100162.41;5196387;28;20513;-42
2021/12/27 03:12:31;;;;;;;112.13;49.63;;;;;;;4.47;64.47;100166.69;5195966;28;20454;-43
2021/12/27 03:15:05;;;;;;;97.20;45.72;;;;;;;4.48;64.48;100165.72;5191397;28;20423;-42
2021/12/27 03:17:38;;;;;;;112.82;47.33;;;;;;;4.49;64.38;100162.16;5192140;28;20415;-43
2021/12/27 03:20:13;;;;;;;101.07;47.80;;;;;;;4.51;64.58;100159.41;5201649;28;20541;-41
2021/12/27 03:22:48;;;;;;;100.90;47.33;;;;;;;4.55;64.62;100160.81;5205402;28;20422;-41
2021/12/27 03:25:24;;;;;;;97.32;47.17;;;;;;;4.53;64.45;100160.94;5191534;28;20411;-46
2021/12/27 03:27:57;;;;;;;107.10;48.17;;;;;;;4.53;64.53;100160.94;5201161;28;20412;-42
2021/12/27 03:30:29;;;;;;;102.13;48.83;;;;;;;4.56;64.77;100147.63;5198903;28;20447;-43
2021/12/27 03:33:02;;;;;;;106.22;49.88;;;;;;;4.57;64.52;100148.44;5190995;28;20422;-42
2021/12/27 03:35:39;;;;;;;110.50;47.72;;;;;;;4.18;64.68;100075.00;5193070;28;20916;-42
2021/12/27 03:38:13;;;;;;;99.20;49.58;;;;;;;4.60;64.76;100150.78;5200502;28;20777;-42
2021/12/27 03:40:48;;;;;;;103.05;48.60;;;;;;;4.65;64.66;100146.03;5195991;28;20424;-44
2021/12/27 03:43:20;;;;;;;109.57;47.88;;;;;;;4.66;64.80;100137.22;5196843;28;20437;-46
2021/12/27 03:45:53;;;;;;;110.23;49.30;;;;;;;4.70;64.96;100132.53;5201725;28;20497;-43
2021/12/27 03:48:25;;;;;;;107.97;51.00;;;;;;;4.72;64.77;100130.63;5198478;28;20414;-43
2021/12/27 03:50:58;;;;;;;98.30;47.77;;;;;;;4.75;64.86;100131.19;5197912;28;20411;-45
2021/12/27 03:53:32;;;;;;;110.97;49.08;;;;;;;4.80;65.00;100128.19;5202018;28;20508;-44
2021/12/27 03:56:05;;;;;;;101.20;47.30;;;;;;;4.84;64.81;100129.59;5196244;28;20513;-46
2021/12/27 03:58:49;;;;;;;103.60;47.97;;;;;;;4.86;64.69;100127.66;5196341;28;20439;-42
2021/12/27 04:01:23;;;;;;;103.65;47.38;;;;;;;4.88;64.96;100117.91;5195534;28;20901;-42
2021/12/27 04:03:57;;;;;;;95.53;46.42;;;;;;;4.90;64.96;100129.06;5209816;28;21347;-42
2021/12/27 04:06:30;;;;;;;93.35;44.92;;;;;;;4.94;64.85;100120.00;5198477;28;21248;-43
2021/12/27 04:09:04;;;;;;;101.30;46.55;;;;;;;4.97;64.78;100119.75;5196375;28;20872;-43
2021/12/27 04:11:36;;;;;;;105.82;45.50;;;;;;;4.98;64.83;100107.47;5204398;28;20431;-41
2021/12/27 04:14:08;;;;;;;101.13;41.50;;;;;;;4.96;65.03;100107.63;5189294;28;20421;-42
2021/12/27 04:16:41;;;;;;;105.68;45.92;;;;;;;4.95;65.18;100105.94;5201326;28;20749;-43
2021/12/27 04:19:13;;;;;;;93.20;44.28;;;;;;;4.91;65.13;100099.31;5189719;28;20401;-43
2021/12/27 04:21:46;;;;;;;96.38;43.42;;;;;;;4.96;65.07;100096.34;5201827;28;20767;-43
2021/12/27 04:24:19;;;;;;;97.10;43.55;;;;;;;4.97;65.34;100104.03;5204733;28;20410;-41
2021/12/27 04:26:52;;;;;;;100.70;45.42;;;;;;;4.97;65.46;100096.19;5193830;28;20555;-42
2021/12/27 04:29:24;;;;;;;100.45;44.25;;;;;;;5.01;65.12;100089.72;5191144;28;20408;-42
2021/12/27 04:31:56;;;;;;;93.72;43.63;;;;;;;5.04;65.35;100091.25;5191087;28;20774;-43
2021/12/27 04:34:29;;;;;;;96.22;42.67;;;;;;;5.04;65.29;100086.84;5193577;28;20623;-43
2021/12/27 04:37:01;;;;;;;93.90;43.72;;;;;;;5.07;65.43;100083.94;5197227;28;20437;-42
2021/12/27 04:39:35;;;;;;;93.80;42.67;;;;;;;5.09;65.09;100084.66;5202995;28;20686;-42
2021/12/27 04:42:09;;;;;;;87.15;40.70;;;;;;;4.85;65.16;100039.69;5200099;28;20524;-42
2021/12/27 04:44:41;;;;;;;97.10;42.95;;;;;;;5.09;65.25;100082.03;5200174;28;20416;-42
2021/12/27 04:47:16;;;;;;;90.18;41.75;;;;;;;5.09;65.40;100076.81;5195151;28;20399;-41
2021/12/27 04:49:48;;;;;;;90.97;40.92;;;;;;;5.12;65.36;100085.38;5198511;28;20451;-41
2021/12/27 04:52:21;;;;;;;91.10;41.03;;;;;;;5.11;65.38;100078.44;5192517;28;20513;-43
2021/12/27 04:54:54;;;;;;;99.30;41.10;;;;;;;5.07;65.35;100065.63;5188753;28;20862;-42
2021/12/27 04:57:28;;;;;;;89.13;42.23;;;;;;;5.07;65.50;100068.25;5194535;28;20510;-42
2021/12/27 05:00:01;;;;;;;86.22;39.85;;;;;;;5.15;65.56;100080.69;5204233;28;20506;-42
2021/12/27 05:02:33;;;;;;;98.38;42.85;;;;;;;5.17;65.46;100072.69;5208427;28;20407;-42
2021/12/27 05:05:06;;;;;;;100.28;44.13;;;;;;;5.20;65.54;100075.03;5207052;28;20397;-43
2021/12/27 05:07:39;;;;;;;90.32;41.65;;;;;;;5.21;65.56;100074.09;5199987;28;20410;-41
2021/12/27 05:10:13;;;;;;;92.47;41.72;;;;;;;5.27;65.55;100078.78;5204127;28;20400;-43
2021/12/27 05:12:46;;;;;;;95.38;40.70;;;;;;;5.21;65.69;100071.47;5198473;28;20423;-43
2021/12/27 05:15:18;;;;;;;101.43;44.60;;;;;;;5.23;65.68;100066.91;5189967;28;20496;-43
2021/12/27 05:17:50;;;;;;;107.40;44.83;;;;;;;5.23;65.76;100066.91;5189320;28;20434;-45
2021/12/27 05:20:23;;;;;;;103.10;44.30;;;;;;;5.21;65.67;100067.06;5193819;28;20777;-43
2021/12/27 05:22:55;;;;;;;98.80;43.85;;;;;;;5.20;65.97;100056.72;5204408;28;20433;-43
2021/12/27 05:25:29;;;;;;;104.28;44.85;;;;;;;5.21;65.76;100053.97;5193703;28;20413;-42
2021/12/27 05:28:02;;;;;;;108.05;45.67;;;;;;;5.24;65.87;100051.09;5181483;28;20911;-43
2021/12/27 05:30:34;;;;;;;115.22;45.22;;;;;;;5.27;65.94;100052.63;5181904;28;20415;-43
2021/12/27 05:33:06;;;;;;;120.53;47.47;;;;;;;5.23;65.82;100032.88;5182859;28;21050;-42
2021/12/27 05:35:39;;;;;;;125.03;47.67;;;;;;;5.23;66.12;100030.25;5187961;28;20426;-42
2021/12/27 05:38:11;;;;;;;126.30;49.40;;;;;;;5.25;65.90;100029.19;5179399;28;20397;-42
2021/12/27 05:40:45;;;;;;;144.00;47.03;;;;;;;5.24;65.96;100022.28;5179709;28;20424;-43
2021/12/27 05:43:17;;;;;;;126.53;47.35;;;;;;;5.17;66.18;100007.25;5183089;28;20427;-42
2021/12/27 05:45:50;;;;;;;119.97;44.30;;;;;;;5.23;66.33;100014.56;5175290;28;20438;-48
2021/12/27 05:48:22;;;;;;;115.63;44.65;;;;;;;5.19;66.27;100013.19;5179673;28;20423;-44
2021/12/27 05:50:55;;;;;;;127.88;44.58;;;;;;;5.27;66.13;100016.78;5178221;28;20422;-42
2021/12/27 05:53:27;;;;;;;125.05;45.00;;;;;;;5.27;66.38;100000.25;5177483;28;20437;-42
2021/12/27 05:56:01;;;;;;;119.68;46.83;;;;;;;5.29;66.35;100019.25;5179253;28;20401;-46
2021/12/27 05:58:33;;;;;;;143.07;46.97;;;;;;;5.28;66.18;100012.38;5178259;28;20427;-44
2021/12/27 06:01:05;;;;;;;117.53;44.13;;;;;;;5.29;66.34;100021.88;5176145;28;20875;-43
2021/12/27 06:03:38;;;;;;;133.80;45.63;;;;;;;5.28;66.25;100028.91;5180830;28;20782;-45
2021/12/27 06:06:10;;;;;;;118.38;45.17;;;;;;;5.29;66.21;100034.97;5182282;28;20913;-43
2021/12/27 06:08:43;;;;;;;119.22;45.05;;;;;;;5.26;66.59;100030.00;5180767;28;20411;-42
2021/12/27 06:11:17;;;;;;;122.68;46.80;;;;;;;5.24;66.48;100031.94;5187131;28;20413;-42
2021/12/27 06:13:49;;;;;;;131.25;49.97;;;;;;;5.26;66.59;100033.44;5181597;28;20413;-42
2021/12/27 06:16:22;;;;;;;139.05;47.55;;;;;;;5.30;66.48;100031.41;5175091;28;20424;-49
2021/12/27 06:18:54;;;;;;;150.10;51.88;;;;;;;5.30;66.58;100026.16;5176112;28;20492;-41
2021/12/27 06:21:27;;;;;;;150.50;50.58;;;;;;;5.30;66.58;100031.41;5179602;28;20413;-44
2021/12/27 06:23:59;;;;;;;156.53;52.87;;;;;;;5.32;66.68;100034.69;5187156;28;20454;-44
2021/12/27 06:26:33;;;;;;;154.40;50.13;;;;;;;5.31;66.78;100027.81;5181289;28;20849;-41
2021/12/27 06:29:05;;;;;;;169.98;50.20;;;;;;;5.27;66.54;100016.78;5183108;28;20427;-42
2021/12/27 06:31:38;;;;;;;145.17;48.77;;;;;;;5.23;66.72;100009.31;5176828;28;20604;-41
2021/12/27 06:34:10;;;;;;;178.48;53.15;;;;;;;5.30;66.82;100027.00;5182644;28;20495;-42
2021/12/27 06:36:43;;;;;;;166.85;53.80;;;;;;;5.37;66.73;100027.28;5178606;28;20423;-43
2021/12/27 06:39:15;;;;;;;198.13;56.78;;;;;;;5.39;66.90;100025.34;5181935;28;20403;-42
2021/12/27 06:41:49;;;;;;;183.77;57.08;;;;;;;5.43;66.71;100031.97;5182514;28;20416;-42
2021/12/27 06:44:22;;;;;;;201.10;61.45;;;;;;;5.43;66.56;100031.97;5175291;28;20423;-45
2021/12/27 06:46:56;;;;;;;212.52;61.40;;;;;;;5.48;66.62;100032.38;5179500;28;20512;-42
2021/12/27 06:49:29;;;;;;;210.53;60.60;;;;;;;5.52;66.87;100030.31;5184024;28;20575;-46
2021/12/27 06:52:01;;;;;;;189.93;57.65;;;;;;;5.55;66.76;100027.44;5174940;28;20420;-43
2021/12/27 06:54:34;;;;;;;248.77;63.87;;;;;;;5.58;66.82;100029.78;5180808;28;20427;-42
2021/12/27 06:57:08;;;;;;;234.30;63.70;;;;;;;5.61;66.71;100028.69;5183772;28;20419;-42
2021/12/27 06:59:40;;;;;;;210.73;54.45;;;;;;;5.56;66.76;100036.94;5174967;28;20409;-41
2021/12/27 07:02:13;;;;;;;253.52;59.38;;;;;;;5.62;66.86;100027.69;5182578;28;20435;-42
2021/12/27 07:04:46;;;;;;;244.43;58.80;;;;;;;5.68;66.86;100027.16;5176086;28;20447;-41
2021/12/27 07:07:18;;;;;;;221.40;57.55;;;;;;;5.70;66.57;100028.66;5178815;28;20844;-42
2021/12/27 07:09:51;;;;;;;271.10;61.67;;;;;;;5.72;66.92;100025.91;5174147;28;20500;-46
2021/12/27 07:12:25;;;;;;;284.90;64.10;;;;;;;5.74;66.95;100023.97;5188549;28;20437;-42
2021/12/27 07:14:58;;;;;;;296.35;62.15;;;;;;;5.74;66.80;100019.56;5175002;28;20427;-43
2021/12/27 07:17:30;;;;;;;291.52;63.65;;;;;;;5.78;66.70;100020.09;5178686;28;20514;-43
2021/12/27 07:20:03;;;;;;;262.88;61.20;;;;;;;5.79;66.93;100027.00;5183204;28;20477;-46
2021/12/27 07:22:36;;;;;;;250.07;61.13;;;;;;;5.71;66.71;100019.84;5185591;28;20589;-44
2021/12/27 07:25:10;;;;;;;235.40;59.47;;;;;;;5.79;66.93;100027.00;5184910;28;20419;-42
2021/12/27 07:27:43;;;;;;;263.23;61.00;;;;;;;5.81;67.16;100035.56;5191840;28;20883;-42
2021/12/27 07:30:16;;;;;;;262.27;61.45;;;;;;;5.83;67.01;100027.56;5196831;28;20428;-43
2021/12/27 07:32:48;;;;;;;236.80;58.55;;;;;;;5.85;67.02;100039.53;5208041;28;20419;-43
2021/12/27 07:35:21;;;;;;;207.35;55.13;;;;;;;5.85;67.15;100029.06;5197545;28;20419;-48
2021/12/27 07:37:53;;;;;;;205.30;54.55;;;;;;;5.85;67.14;100034.28;5193254;28;20422;-43
2021/12/27 07:40:26;;;;;;;205.30;54.92;;;;;;;5.82;67.34;100037.19;5208054;28;20421;-44
2021/12/27 07:43:00;;;;;;;196.88;56.17;;;;;;;5.86;67.22;100027.28;5204972;28;20912;-42
2021/12/27 07:45:32;;;;;;;201.77;53.88;;;;;;;5.90;67.32;100029.47;5199979;28;20417;-42
2021/12/27 07:48:07;;;;;;;194.98;53.30;;;;;;;5.91;67.23;100020.63;5204493;28;20766;-42
2021/12/27 07:50:39;;;;;;;210.63;55.08;;;;;;;5.93;67.29;100024.00;5211243;28;20423;-43
2021/12/27 07:53:12;;;;;;;211.15;56.17;;;;;;;5.96;67.37;100023.72;5212964;28;20429;-41
2021/12/27 07:55:44;;;;;;;197.07;55.17;;;;;;;5.98;67.20;100024.41;5210395;28;20423;-43
2021/12/27 07:58:18;;;;;;;223.63;57.40;;;;;;;6.03;67.15;100023.16;5194608;28;20413;-43
2021/12/27 08:00:52;;;;;;;192.30;53.45;;;;;;;6.06;67.31;100022.88;5190341;28;20428;-47
2021/12/27 08:03:25;;;;;;;163.00;49.53;;;;;;;6.06;67.34;100023.69;5202138;28;20411;-43
2021/12/27 08:05:57;;;;;;;205.90;56.73;;;;;;;6.04;67.41;100009.06;5200679;28;20530;-43
2021/12/27 08:08:30;;;;;;;206.63;58.45;;;;;;;6.09;67.52;100012.09;5199821;28;20417;-43
2021/12/27 08:11:02;;;;;;;219.32;56.50;;;;;;;6.17;67.27;100014.84;5194634;28;20540;-44
2021/12/27 08:13:37;;;;;;;216.35;59.72;;;;;;;6.19;67.23;100012.91;5197613;28;20435;-43
2021/12/27 08:16:09;;;;;;;238.48;59.55;;;;;;;6.20;67.42;100019.81;5195471;28;20437;-46
2021/12/27 08:18:42;;;;;;;216.30;59.42;;;;;;;6.25;67.36;100022.81;5188854;28;20502;-44
2021/12/27 08:21:16;;;;;;;209.40;58.35;;;;;;;6.26;67.40;100018.44;5203566;28;20417;-42
2021/12/27 08:23:49;;;;;;;212.73;58.30;;;;;;;6.26;67.50;100018.44;5203927;28;20874;-43
2021/12/27 08:26:22;;;;;;;224.95;57.33;;;;;;;6.29;67.48;100018.13;5191837;28;20407;-48
2021/12/27 08:28:57;;;;;;;247.13;61.17;;;;;;;6.31;67.37;100011.75;5192352;28;20524;-43
2021/12/27 08:31:29;;;;;;;254.50;62.97;;;;;;;6.32;67.49;100013.44;5195416;28;20445;-42
2021/12/27 08:34:02;;;;;;;236.43;58.35;;;;;;;6.35;67.36;100017.53;5198967;28;20430;-44
2021/12/27 08:36:34;;;;;;;231.02;58.70;;;;;;;6.35;67.65;100034.13;5200760;28;20430;-43
2021/12/27 08:39:07;;;;;;;237.18;60.58;;;;;;;6.33;67.43;100015.06;5196425;28;20416;-43
2021/12/27 08:41:39;;;;;;;251.52;63.08;;;;;;;6.40;67.57;100016.16;5203391;28;20419;-43
2021/12/27 08:44:13;;;;;;;221.38;60.55;;;;;;;6.47;67.28;100024.28;5190744;28;20475;-44
2021/12/27 08:46:45;;;;;;;229.88;60.25;;;;;;;6.53;67.47;100025.50;5190933;28;20419;-43
2021/12/27 08:49:18;;;;;;;228.55;60.33;;;;;;;6.54;67.60;100021.94;5189942;28;20869;-44
2021/12/27 08:51:50;;;;;;;211.80;57.05;;;;;;;6.56;67.37;100025.22;5203497;28;20404;-43
2021/12/27 08:54:22;;;;;;;192.90;54.28;;;;;;;6.54;67.53;100006.19;5198679;28;20426;-43
2021/12/27 08:56:55;;;;;;;237.37;61.37;;;;;;;6.54;67.74;100000.94;5199692;28;20798;-43
2021/12/27 08:59:28;;;;;;;245.65;64.35;;;;;;;6.58;67.52;99997.03;5198555;28;20506;-47
2021/12/27 09:02:01;;;;;;;252.75;62.90;;;;;;;6.61;67.53;99994.97;5194319;28;20417;-43
2021/12/27 09:04:34;;;;;;;252.67;63.40;;;;;;;6.64;67.55;99992.03;5191505;28;20528;-44
2021/12/27 09:07:06;;;;;;;256.55;61.53;;;;;;;6.66;67.54;99994.53;5204392;28;20421;-46
2021/12/27 09:09:39;;;;;;;261.37;63.37;;;;;;;6.67;67.58;99990.94;5207432;28;20804;-47
2021/12/27 09:12:12;;;;;;;247.00;60.35;;;;;;;6.70;67.50;99986.22;5217435;28;20410;-44
2021/12/27 09:14:46;;;;;;;254.02;61.20;;;;;;;6.72;67.70;99988.72;5210949;28;20427;-44
2021/12/27 09:17:19;;;;;;;229.40;58.08;;;;;;;6.72;67.68;99991.34;5208401;28;20499;-43
2021/12/27 09:19:51;;;;;;;262.83;61.33;;;;;;;6.76;67.52;99997.94;5204682;28;20833;-47
2021/12/27 09:22:23;;;;;;;232.70;59.97;;;;;;;6.80;67.83;99999.28;5204317;28;20433;-43
2021/12/27 09:24:56;;;;;;;233.27;62.08;;;;;;;6.74;67.55;99980.69;5212466;28;20408;-43
2021/12/27 09:27:28;;;;;;;214.10;59.72;;;;;;;6.80;67.74;99991.41;5185651;28;20824;-43
2021/12/27 09:30:03;;;;;;;184.77;54.57;;;;;;;6.80;67.73;99985.34;5188549;28;20509;-44
2021/12/27 09:32:35;;;;;;;214.82;56.63;;;;;;;6.81;67.92;99993.06;5183925;28;20949;-45
2021/12/27 09:35:09;;;;;;;206.13;55.87;;;;;;;6.82;67.91;99984.22;5183276;28;20415;-42
2021/12/27 09:37:41;;;;;;;216.95;57.25;;;;;;;6.83;68.00;99985.88;5189197;28;20797;-42
2021/12/27 09:40:14;;;;;;;217.82;57.20;;;;;;;6.83;67.99;99975.38;5183039;28;20411;-45
2021/12/27 09:42:47;;;;;;;211.82;59.70;;;;;;;6.86;67.88;99977.69;5185640;28;20767;-44
2021/12/27 09:45:22;;;;;;;203.13;60.30;;;;;;;6.88;68.00;99970.53;5203991;28;20423;-42
2021/12/27 09:47:55;;;;;;;207.65;61.15;;;;;;;6.91;67.56;99964.16;5194740;28;20451;-43
2021/12/27 09:50:31;;;;;;;217.23;59.78;;;;;;;6.98;68.02;99974.88;5203327;28;20521;-44
2021/12/27 09:53:04;;;;;;;197.90;59.00;;;;;;;7.01;68.12;99959.66;5210535;28;20923;-42
2021/12/27 09:55:37;;;;;;;210.30;59.97;;;;;;;7.04;67.95;99967.25;5201202;28;20423;-43
2021/12/27 09:58:09;;;;;;;209.73;56.40;;;;;;;7.06;67.97;99967.06;5192680;28;20796;-44
2021/12/27 10:00:43;;;;;;;216.68;55.28;;;;;;;7.06;67.92;99967.06;5198496;28;20414;-42
2021/12/27 10:03:15;;;;;;;221.35;56.00;;;;;;;7.00;68.07;99962.41;5195734;28;20897;-45
2021/12/27 10:05:53;;;;;;;196.27;53.30;;;;;;;7.13;67.97;99976.84;5197427;28;20433;-48
2021/12/27 10:08:30;;;;;;;201.30;55.07;;;;;;;7.13;68.24;99970.78;5190537;28;20407;-43
2021/12/27 10:11:03;;;;;;;146.07;50.97;;;;;;;7.09;68.28;99975.50;5200719;28;20457;-46
2021/12/27 10:13:35;;;;;;;161.05;49.60;;;;;;;7.07;68.25;99966.13;5197313;28;20957;-42
2021/12/27 10:16:16;;;;;;;183.32;55.05;;;;;;;7.15;68.35;99963.56;5198528;28;20805;-42
2021/12/27 10:18:53;;;;;;;156.07;49.33;;;;;;;7.15;68.38;99963.56;5201829;28;20888;-43
2021/12/27 10:21:26;;;;;;;168.98;51.67;;;;;;;7.16;68.35;99957.34;5197609;28;20401;-44
2021/12/27 10:24:07;;;;;;;143.80;48.85;;;;;;;7.14;68.39;99962.75;5193879;28;20429;-42
2021/12/27 10:26:40;;;;;;;154.35;52.40;;;;;;;7.18;68.33;99952.75;5202282;28;20532;-43
2021/12/27 10:29:18;;;;;;;168.70;55.65;;;;;;;7.22;68.42;99942.81;5194808;28;20567;-43
2021/12/27 10:32:04;;;;;;;175.55;53.28;;;;;;;7.28;68.23;99948.28;5196970;28;20524;-38
2021/12/27 10:34:43;;;;;;;133.18;49.38;;;;;;;7.35;68.26;99970.34;5197526;28;20891;-45
2021/12/27 10:37:21;;;;;;;150.45;53.58;;;;;;;7.36;68.28;99939.63;5199484;28;20458;-44
2021/12/27 10:40:01;;;;;;;131.90;52.10;;;;;;;7.44;68.24;99957.28;5196843;28;21261;-44
2021/12/27 10:42:37;;;;;;;116.30;48.83;;;;;;;7.34;68.12;99905.66;5195753;28;20520;-45
2021/12/27 10:45:13;;;;;;;113.22;47.78;;;;;;;7.51;68.33;99922.34;5191464;28;20417;-42
2021/12/27 10:47:49;;;;;;;105.88;46.00;;;;;;;7.46;68.20;99908.84;5195014;28;20512;-44
2021/12/27 10:50:25;;;;;;;105.30;45.50;;;;;;;7.59;68.32;99904.03;5186124;28;20505;-49
2021/12/27 10:53:02;;;;;;;91.75;44.45;;;;;;;7.54;68.14;99900.22;5189387;28;20428;-46
2021/12/27 10:55:39;;;;;;;90.22;43.67;;;;;;;7.37;68.31;99865.94;5191774;28;20842;-43
2021/12/27 10:58:19;;;;;;;94.40;42.90;;;;;;;7.55;68.29;99888.72;5191803;28;20409;-43
2021/12/27 11:00:55;;;;;;;91.80;43.90;;;;;;;7.61;68.41;99891.53;5189436;28;20427;-46
2021/12/27 11:03:32;;;;;;;86.40;41.10;;;;;;;7.69;68.56;99905.75;5194909;28;20422;-42
2021/12/27 11:06:07;;;;;;;88.73;41.60;;;;;;;7.72;68.32;99911.50;5203044;28;20423;-42
2021/12/27 11:08:42;;;;;;;85.93;34.67;;;;;;;7.66;68.42;99912.13;5197508;28;20838;-44
2021/12/27 11:11:15;;;;;;;79.07;35.13;;;;;;;7.57;68.67;99915.66;5201871;28;21823;-44
2021/12/27 11:13:52;;;;;;;85.33;38.57;;;;;;;7.58;68.80;99912.88;5196599;28;20426;-44
2021/12/27 11:16:28;;;;;;;78.88;35.13;;;;;;;7.56;68.71;99924.53;5196375;28;20443;-44
2021/12/27 11:19:02;;;;;;;88.13;37.90;;;;;;;7.56;68.61;99914.03;5189205;28;20415;-43
2021/12/27 11:21:41;;;;;;;80.68;36.80;;;;;;;7.55;68.67;99912.38;5194400;28;20895;-43
2021/12/27 11:24:13;;;;;;;77.05;38.88;;;;;;;7.60;68.78;99910.09;5194774;28;20409;-44
2021/12/27 11:26:46;;;;;;;75.53;34.58;;;;;;;7.51;68.69;99892.63;5200651;28;20483;-44
2021/12/27 11:29:21;;;;;;;77.15;35.30;;;;;;;7.55;68.77;99891.34;5198144;28;20512;-43
2021/12/27 11:32:15;;;;;;;69.28;34.05;;;;;;;7.59;68.88;99897.97;5199634;28;20402;-45
2021/12/27 11:34:58;;;;;;;68.80;33.97;;;;;;;7.65;68.76;99907.00;5198545;28;20431;-45
2021/12/27 11:37:37;;;;;;;74.80;36.30;;;;;;;7.62;68.62;99882.72;5192881;28;20429;-44
2021/12/27 11:40:13;;;;;;;67.82;35.42;;;;;;;7.76;68.64;99883.09;5198933;28;20976;-44
2021/12/27 11:42:56;;;;;;;66.82;32.47;;;;;;;7.75;68.65;99898.06;5192503;28;20453;-43
2021/12/27 11:45:57;;;;;;;50.53;28.15;;;;;;;7.69;68.94;99887.34;5189010;28;20415;-42